Time;durP1;ratioP1;P1;durP2;ratioP2;P2;SDS_P1;SDS_P2;PMS_P1;PMS_P2;Temp;Humidity;BMP_temperature;BMP_pressure;BME280_temperature;BME280_humidity;BME280_pressure;Samples;Min_cycle;Max_cycle;Signal;HPM_P1;HPM_P2
2021/06/16 00:00:37;;;;;;;3.33;2.00;;;18.10;99.90;;;-143.32;72.33;55202.47;6128385;23;20411;-90
2021/06/16 00:03:05;;;;;;;6.63;2.10;;;18.10;99.90;;;-143.32;72.20;55238.84;6128768;23;20438;-91
2021/06/16 00:05:33;;;;;;;9.93;2.70;;;18.10;99.90;;;-143.32;73.75;55228.75;6128704;23;20471;-92
2021/06/16 00:08:01;;;;;;;5.87;1.93;;;18.00;99.90;;;-143.32;74.10;55186.31;6128422;23;20495;-90
2021/06/16 00:10:32;;;;;;;3.40;1.80;;;18.00;99.90;;;-143.32;74.06;55220.66;6128287;23;20408;-91
2021/06/16 00:13:03;;;;;;;5.23;1.87;;;18.00;99.90;;;-143.32;73.69;55242.88;6129223;23;20436;-91
2021/06/16 00:15:35;;;;;;;11.87;2.30;;;17.90;99.90;;;-143.32;73.25;55250.97;6128402;23;20381;-91
2021/06/16 00:18:03;;;;;;;4.40;2.00;;;17.90;99.90;;;-143.32;72.89;55234.81;6128342;23;20392;-91
2021/06/16 00:20:31;;;;;;;11.53;2.10;;;17.90;99.90;;;-143.32;72.80;55232.78;6128260;23;20470;-90
2021/06/16 00:22:58;;;;;;;16.97;2.47;;;17.90;99.90;;;-143.32;72.44;55267.13;6128622;23;20466;-90
2021/06/16 00:25:27;;;;;;;12.83;2.70;;;17.90;99.90;;;-143.32;72.36;55230.75;6128167;23;20407;-90
2021/06/16 00:27:55;;;;;;;6.17;2.00;;;17.90;99.90;;;-143.32;71.91;55244.91;6128080;23;20423;-90
2021/06/16 00:30:23;;;;;;;6.27;2.30;;;18.00;97.30;;;-143.32;71.63;55267.13;6128119;23;20408;-90
2021/06/16 00:32:50;;;;;;;6.50;2.20;;;18.00;57.90;;;-143.32;71.27;55255.00;6128019;23;20598;-90
2021/06/16 00:35:20;;;;;;;11.93;2.90;;;18.00;23.20;;;-143.32;71.02;55259.06;6128197;23;20396;-90
2021/06/16 00:37:47;;;;;;;6.80;2.20;;;18.00;1.00;;;-143.32;70.80;55250.97;6128094;23;20431;-90
2021/06/16 00:40:17;;;;;;;11.90;3.03;;;18.00;1.00;;;-143.32;70.80;55214.59;6128808;23;20407;-91
2021/06/16 00:42:46;;;;;;;5.80;2.37;;;18.10;1.00;;;-143.32;71.04;55230.75;6128032;23;20431;-90
2021/06/16 00:45:14;;;;;;;9.63;2.10;;;18.00;1.00;;;-143.32;71.20;55218.63;6127351;23;20439;-89
2021/06/16 00:47:42;;;;;;;6.80;2.20;;;18.00;1.00;;;-143.32;71.44;55250.97;6128613;23;20412;-90
2021/06/16 00:50:10;;;;;;;6.17;2.20;;;17.90;39.00;;;-143.32;71.29;55267.13;6127958;23;20517;-91
2021/06/16 00:52:38;;;;;;;17.57;2.27;;;17.90;39.60;;;-143.32;70.98;55248.94;6128200;23;20448;-90
2021/06/16 00:55:07;;;;;;;6.30;2.00;;;18.00;26.40;;;-143.32;71.24;55257.03;6128297;23;20400;-91
2021/06/16 00:57:35;;;;;;;6.93;2.63;;;18.00;29.70;;;-143.32;70.85;55257.03;6128119;23;20418;-90
2021/06/16 01:00:09;;;;;;;5.80;2.47;;;18.00;5.20;;;-143.32;71.20;55255.00;6128250;23;20404;-92
2021/06/16 01:02:43;;;;;;;7.50;2.07;;;18.00;3.40;;;-143.32;71.43;55246.94;6128209;23;20705;-90
2021/06/16 01:05:11;;;;;;;4.53;1.93;;;17.80;27.50;;;-143.32;71.33;55259.06;6129202;23;20919;-90
2021/06/16 01:07:43;;;;;;;9.60;2.43;;;17.90;26.60;;;-143.32;71.96;55263.09;6128697;23;20475;-91
2021/06/16 01:10:16;;;;;;;17.23;2.97;;;17.80;99.90;;;-143.32;71.92;55271.19;6128153;23;20396;-90
2021/06/16 01:16:35;;;;;;;12.00;2.80;;;17.80;99.90;;;-143.32;72.30;55232.78;6127948;23;20435;-91
2021/06/16 01:19:12;;;;;;;7.87;2.13;;;17.70;99.90;;;-143.32;72.29;55250.97;6128131;23;20457;-91
2021/06/16 01:21:44;;;;;;;11.23;2.40;;;17.70;99.90;;;-143.32;71.96;55275.22;6128123;23;20460;-90
2021/06/16 01:24:18;;;;;;;5.00;2.30;;;17.70;99.90;;;-143.32;71.61;55259.06;6128047;23;20400;-91
2021/06/16 01:26:56;;;;;;;10.77;3.23;;;17.80;96.20;;;-143.32;71.31;55295.44;6128022;23;20472;-90
2021/06/16 01:29:29;;;;;;;8.83;2.70;;;17.80;42.00;;;-143.32;71.61;55273.19;6127660;23;20398;-91
2021/06/16 01:32:03;;;;;;;6.77;2.00;;;17.80;93.20;;;-143.32;71.66;55261.06;6127912;23;20432;-90
2021/06/16 01:34:30;;;;;;;8.93;2.50;;;17.80;95.10;;;-143.32;71.96;55283.31;6127808;23;20459;-89
2021/06/16 01:37:00;;;;;;;5.37;1.70;;;17.80;99.90;;;-143.32;71.58;55267.13;6128277;23;20455;-89
2021/06/16 01:39:32;;;;;;;4.70;2.40;;;17.80;94.80;;;-143.32;72.05;55263.09;6128893;23;20408;-90
2021/06/16 01:42:15;;;;;;;7.70;2.00;;;17.80;99.90;;;-143.32;71.87;55269.16;6128104;23;20419;-90
2021/06/16 01:44:44;;;;;;;6.47;2.00;;;17.80;99.90;;;-143.32;71.66;55265.13;6128082;23;20494;-91
2021/06/16 01:47:14;;;;;;;5.10;2.40;;;17.80;93.10;;;-143.32;71.91;55271.19;6127323;23;20416;-91
2021/06/16 01:49:43;;;;;;;6.57;2.20;;;17.80;99.90;;;-143.32;71.84;55269.16;6127812;23;20689;-90
2021/06/16 01:52:10;;;;;;;6.40;2.17;;;17.90;99.90;;;-143.32;72.04;55255.00;6128001;23;20446;-90
2021/06/16 01:54:39;;;;;;;15.23;3.70;;;17.80;99.90;;;-143.32;71.88;55263.09;6127285;23;20525;-90
2021/06/16 01:57:15;;;;;;;7.03;2.33;;;17.90;97.20;;;-143.32;71.86;55261.06;6127199;23;20447;-90
2021/06/16 01:59:44;;;;;;;7.23;2.07;;;17.90;99.90;;;-143.32;72.04;55253.00;6127640;23;20399;-90
2021/06/16 02:02:11;;;;;;;7.03;2.10;;;17.80;99.90;;;-143.32;72.53;55238.84;6127762;23;20404;-90
2021/06/16 02:04:39;;;;;;;5.53;2.40;;;17.80;99.90;;;-143.32;72.71;55263.09;6127272;23;20934;-89
2021/06/16 02:07:14;;;;;;;9.80;2.80;;;17.80;99.90;;;-143.32;73.23;55275.22;6127239;23;20487;-91
2021/06/16 02:09:44;;;;;;;4.33;2.17;;;17.70;99.90;;;-143.32;72.98;55281.28;6128289;23;20766;-92
2021/06/16 02:12:16;;;;;;;4.37;2.40;;;17.70;99.90;;;-143.32;73.44;55238.84;6127493;23;20444;-92
2021/06/16 02:14:52;;;;;;;5.07;2.23;;;17.70;99.90;;;-143.32;74.19;55253.00;6127582;23;20400;-90
2021/06/16 02:17:21;;;;;;;6.10;2.23;;;17.60;99.90;;;-143.32;75.32;55253.00;6127699;23;20431;-90
2021/06/16 02:19:49;;;;;;;13.50;2.10;;;17.50;99.90;;;-143.32;75.96;55246.94;6127626;23;20740;-91
2021/06/16 02:22:19;;;;;;;7.93;2.10;;;17.40;1.00;;;-143.32;76.86;55246.94;6127131;23;20951;-91
2021/06/16 02:24:47;;;;;;;7.83;2.80;;;17.30;1.00;;;-143.32;77.54;55236.81;6127477;23;20397;-92
2021/06/16 02:27:15;;;;;;;7.03;2.20;;;17.30;1.00;;;-143.32;77.62;55238.84;6128042;23;20408;-90
2021/06/16 02:29:42;;;;;;;6.77;3.00;;;17.20;1.00;;;-143.32;78.86;55226.72;6127025;23;20785;-90
2021/06/16 02:32:11;;;;;;;10.40;2.83;;;17.10;1.00;;;-143.32;79.04;55232.78;6127343;23;20431;-90
2021/06/16 02:34:39;;;;;;;3.63;2.37;;;17.10;1.00;;;-143.32;79.04;55246.94;6128006;23;20408;-91
2021/06/16 02:37:20;;;;;;;3.83;2.40;;;17.00;1.00;;;-143.32;78.92;55257.03;6127362;23;20404;-90
2021/06/16 02:39:54;;;;;;;6.27;2.53;;;17.00;1.00;;;-143.32;80.00;55244.91;6127289;23;20455;-91
2021/06/16 02:42:24;;;;;;;7.43;3.10;;;16.90;1.00;;;-143.32;79.75;55261.06;6126833;23;20407;-92
2021/06/16 02:44:52;;;;;;;12.50;3.53;;;16.90;1.00;;;-143.32;79.25;55275.22;6127625;23;20412;-90
2021/06/16 02:47:20;;;;;;;9.17;2.70;;;16.90;1.00;;;-143.32;79.90;55210.56;6127271;23;20471;-90
2021/06/16 02:49:52;;;;;;;9.00;2.70;;;16.90;1.00;;;-143.32;79.75;55246.94;6126833;23;20733;-91
2021/06/16 02:52:20;;;;;;;11.30;2.90;;;16.90;1.00;;;-143.32;80.20;55206.50;6127177;23;20498;-90
2021/06/16 02:54:52;;;;;;;8.83;2.93;;;16.90;15.80;;;-143.32;79.97;55232.78;6127161;23;20408;-91
2021/06/16 02:57:24;;;;;;;14.43;2.70;;;16.80;1.00;;;-143.32;79.71;55257.03;6126817;23;20404;-91
2021/06/16 02:59:53;;;;;;;9.60;3.23;;;16.90;1.00;;;-143.32;79.54;55236.81;6126865;23;20475;-90
2021/06/16 03:02:24;;;;;;;6.73;3.20;;;16.80;1.00;;;-143.32;79.45;55257.03;6127118;23;20408;-91
2021/06/16 03:04:52;;;;;;;12.27;2.93;;;16.90;1.00;;;-143.32;79.22;55226.72;6127201;23;20392;-92
2021/06/16 03:07:22;;;;;;;5.37;3.00;;;16.90;1.00;;;-143.32;79.36;55275.22;6126894;23;20416;-91
2021/06/16 03:09:50;;;;;;;11.17;3.50;;;16.90;1.00;;;-143.32;79.51;55265.13;6126879;23;20392;-91
2021/06/16 03:12:21;;;;;;;9.43;3.60;;;16.70;1.00;;;-143.32;79.62;55238.84;6126574;23;20482;-90
2021/06/16 03:14:52;;;;;;;5.37;2.90;;;16.90;1.00;;;-143.32;79.67;55259.06;6126848;23;20476;-91
2021/06/16 03:17:20;;;;;;;7.00;3.00;;;16.80;1.00;;;-143.32;79.37;55259.06;6127126;23;20376;-91
2021/06/16 03:19:49;;;;;;;10.20;2.90;;;16.90;1.00;;;-143.32;79.32;55236.81;6126728;23;20471;-91
2021/06/16 03:22:17;;;;;;;8.80;3.07;;;16.90;1.00;;;-143.32;79.41;55244.91;6127068;23;20876;-90
2021/06/16 03:24:46;;;;;;;15.57;2.90;;;16.90;1.00;;;-143.32;79.59;55238.84;6126781;23;20392;-91
2021/06/16 03:27:15;;;;;;;7.37;3.00;;;16.90;1.00;;;-143.32;80.05;55232.78;6126613;23;20493;-91
2021/06/16 03:29:42;;;;;;;7.20;2.83;;;16.90;1.00;;;-143.32;80.18;55244.91;6126622;23;20408;-91
2021/06/16 03:32:13;;;;;;;9.13;3.00;;;16.80;1.00;;;-143.32;80.39;55232.78;6126465;23;20475;-91
2021/06/16 03:34:40;;;;;;;6.60;3.20;;;16.80;13.90;;;-143.32;80.53;55246.94;6127651;23;20404;-90
2021/06/16 03:37:11;;;;;;;10.57;3.33;;;16.80;30.30;;;-143.32;80.98;55228.75;6126597;23;20482;-89
2021/06/16 03:39:42;;;;;;;12.57;4.10;;;16.80;64.70;;;-143.32;80.90;55234.81;6126607;23;20408;-89
2021/06/16 03:42:12;;;;;;;9.60;3.20;;;16.80;85.80;;;-143.32;81.25;55232.78;6127309;23;20403;-90
2021/06/16 03:44:40;;;;;;;7.90;3.40;;;16.70;99.90;;;-143.32;80.96;55246.94;6127115;23;20423;-91
2021/06/16 03:47:11;;;;;;;11.20;3.70;;;16.80;66.70;;;-143.32;81.37;55192.38;6127189;23;20420;-89
2021/06/16 03:49:41;;;;;;;8.20;3.40;;;16.80;95.60;;;-143.32;81.49;55218.63;6127025;23;20388;-91
2021/06/16 03:52:09;;;;;;;8.77;3.43;;;16.80;99.90;;;-143.32;81.03;55238.84;6126766;23;20420;-89
2021/06/16 03:54:37;;;;;;;6.67;3.53;;;16.80;94.00;;;-143.32;81.74;55198.44;6127550;23;20502;-91
2021/06/16 03:57:07;;;;;;;10.20;3.20;;;16.90;99.90;;;-143.32;82.80;55210.56;6127050;23;20407;-91
2021/06/16 03:59:36;;;;;;;7.27;3.73;;;16.80;99.90;;;-143.32;82.92;55200.44;6127145;23;20414;-90
2021/06/16 04:02:04;;;;;;;12.70;4.27;;;16.80;99.90;;;-143.32;83.22;55230.75;6127188;23;20494;-90
2021/06/16 04:04:34;;;;;;;12.73;3.30;;;16.80;99.90;;;-143.32;82.95;55214.59;6126875;23;20767;-91
2021/06/16 04:07:02;;;;;;;9.13;3.50;;;16.70;99.90;;;-143.32;83.03;55228.75;6126658;23;20478;-91
2021/06/16 04:09:30;;;;;;;7.13;3.40;;;16.70;99.90;;;-143.32;83.72;55222.69;6126487;23;20965;-90
2021/06/16 04:11:59;;;;;;;7.37;3.60;;;16.70;99.90;;;-143.32;83.54;55192.38;6126785;23;20408;-89
2021/06/16 04:14:27;;;;;;;10.60;3.90;;;16.80;99.90;;;-143.32;83.54;55200.44;6126727;23;20454;-92
2021/06/16 04:16:57;;;;;;;8.73;3.43;;;16.80;99.90;;;-143.32;83.64;55202.47;6128067;23;20412;-91
2021/06/16 04:19:25;;;;;;;9.07;3.90;;;16.80;99.90;;;-143.32;83.80;55214.59;6127483;23;20422;-91
2021/06/16 04:21:56;;;;;;;12.17;4.00;;;16.80;99.90;;;-143.32;83.30;55198.44;6128710;23;20395;-90
2021/06/16 04:24:23;;;;;;;16.47;5.23;;;16.90;99.90;;;-143.32;83.19;55226.72;6129658;23;20395;-89
2021/06/16 04:26:50;;;;;;;13.33;3.93;;;17.00;99.90;;;-143.32;83.07;55182.25;6128486;23;20780;-91
2021/06/16 04:29:18;;;;;;;10.83;4.13;;;17.00;99.90;;;-143.32;83.03;55210.56;6128519;23;20728;-90
2021/06/16 04:31:46;;;;;;;8.93;3.90;;;17.00;99.90;;;-143.32;83.63;55184.28;6128241;23;20503;-90
2021/06/16 04:34:13;;;;;;;12.83;4.87;;;17.10;99.90;;;-143.32;83.83;55184.28;6127914;23;20502;-90
2021/06/16 04:36:40;;;;;;;7.27;4.10;;;17.10;99.90;;;-143.32;83.59;55172.16;6129062;23;20408;-89
2021/06/16 04:39:11;;;;;;;8.30;3.23;;;17.10;99.90;;;-143.32;83.70;55162.06;6128434;23;20407;-90
2021/06/16 04:41:38;;;;;;;25.27;4.13;;;17.20;99.90;;;-143.32;83.98;55170.13;6128483;23;20396;-91
2021/06/16 04:44:11;;;;;;;14.70;4.37;;;17.20;99.90;;;-143.32;83.26;55174.19;6130283;23;20408;-90
2021/06/16 04:46:38;;;;;;;9.27;4.20;;;17.20;99.90;;;-143.32;83.61;55160.03;6128567;23;20521;-90
2021/06/16 04:49:06;;;;;;;17.50;4.20;;;17.30;99.90;;;-143.32;83.26;55156.00;6128118;23;20396;-91
2021/06/16 04:51:36;;;;;;;16.60;4.37;;;17.30;99.90;;;-143.32;82.89;55170.13;6128478;23;20436;-90
2021/06/16 04:54:10;;;;;;;14.60;4.53;;;17.40;99.90;;;-143.32;82.76;55153.97;6128680;23;20452;-90
2021/06/16 04:56:39;;;;;;;7.20;4.23;;;17.50;99.90;;;-143.32;82.26;55168.13;6128447;23;20412;-92
2021/06/16 04:59:10;;;;;;;11.53;4.80;;;17.60;99.90;;;-143.32;81.85;55135.78;6128618;23;20482;-91
2021/06/16 05:01:42;;;;;;;10.80;4.93;;;17.70;49.90;;;-143.32;81.85;55182.25;6128264;23;20467;-89
2021/06/16 05:04:15;;;;;;;6.43;4.70;;;17.70;37.80;;;-143.32;82.00;55176.19;6129955;23;20384;-90
2021/06/16 05:06:42;;;;;;;11.50;5.00;;;17.70;50.70;;;-143.32;81.85;55164.06;6129043;23;20404;-91
2021/06/16 05:09:17;;;;;;;12.23;5.00;;;17.70;52.50;;;-143.32;81.01;55178.22;6127769;23;20408;-90
2021/06/16 05:11:49;;;;;;;9.10;5.30;;;18.00;24.70;;;-143.32;80.84;55156.00;6127921;23;20392;-91
2021/06/16 05:14:20;;;;;;;8.63;4.80;;;17.90;1.00;;;-143.32;81.04;55149.94;6127853;23;20436;-91
2021/06/16 05:16:47;;;;;;;5.80;4.90;;;18.00;1.00;;;-143.32;80.69;55170.13;6128766;23;20749;-93
2021/06/16 05:19:18;;;;;;;8.97;4.70;;;18.10;1.00;;;-143.32;80.59;55149.94;6128071;23;20411;-92
2021/06/16 05:22:04;;;;;;;12.13;4.70;;;18.20;1.00;;;-143.32;79.56;55119.63;6128210;23;20392;-91
2021/06/16 05:24:34;;;;;;;21.93;5.37;;;18.40;1.00;;;-143.32;79.80;55123.66;6128784;23;20388;-91
2021/06/16 05:27:10;;;;;;;21.43;6.03;;;18.40;1.00;;;-143.32;79.66;55131.75;6127785;23;20780;-92
2021/06/16 05:29:40;;;;;;;11.10;4.93;;;18.50;1.00;;;-143.32;79.29;55121.63;6127524;23;20459;-91
2021/06/16 05:32:08;;;;;;;10.20;4.80;;;18.70;1.00;;;-143.32;78.87;55079.19;6127264;23;20464;-92
2021/06/16 05:34:38;;;;;;;12.63;5.30;;;18.80;1.00;;;-143.32;78.30;55075.16;6127300;23;20526;-93
2021/06/16 05:37:14;;;;;;;9.60;5.50;;;19.00;1.00;;;-143.32;77.17;55083.25;6127770;23;20479;-90
2021/06/16 05:39:42;;;;;;;20.40;6.93;;;19.10;99.90;;;-143.32;76.94;55123.66;6127904;23;20404;-89
2021/06/16 05:42:11;;;;;;;28.13;7.37;;;19.20;99.90;;;-143.32;76.62;55119.63;6127744;23;20411;-91
2021/06/16 05:44:40;;;;;;;9.13;4.73;;;19.30;99.90;;;-143.32;76.13;55093.34;6127717;23;20404;-88
2021/06/16 05:47:08;;;;;;;11.60;5.17;;;19.50;99.90;;;-143.32;75.85;55085.25;6127539;23;20439;-90
2021/06/16 05:52:16;;;;;;;12.03;5.53;;;19.80;99.90;;;-143.32;74.08;55077.19;6052558;23;20432;-89
2021/06/16 05:54:43;;;;;;;17.10;5.73;;;20.00;99.90;;;-143.32;73.19;55059.00;6126762;23;20966;-90
2021/06/16 05:57:12;;;;;;;10.87;4.90;;;20.40;99.90;;;-143.32;71.16;55075.16;6127415;23;20943;-92
2021/06/16 05:59:41;;;;;;;11.37;4.90;;;20.90;11.30;;;-143.32;70.31;55040.81;6127275;23;20415;-89
2021/06/16 06:02:09;;;;;;;13.13;4.90;;;21.10;1.00;;;-143.32;68.78;55056.97;6127346;23;20463;-88
2021/06/16 06:04:38;;;;;;;10.50;4.73;;;21.50;1.00;;;-143.32;66.80;55026.66;6127098;23;20427;-90
2021/06/16 06:07:06;;;;;;;11.87;4.73;;;21.70;1.00;;;-143.32;65.42;55040.81;6126892;23;20420;-88
2021/06/16 06:09:34;;;;;;;12.97;4.53;;;21.90;1.00;;;-143.32;65.59;55018.59;6127509;23;20411;-88
2021/06/16 06:12:01;;;;;;;8.70;4.80;;;22.10;99.90;;;-143.32;65.64;55048.88;6127311;23;20407;-89
2021/06/16 06:14:30;;;;;;;8.57;4.30;;;22.20;99.90;;;-143.32;65.05;55016.56;6127288;23;20447;-89
2021/06/16 06:16:57;;;;;;;15.03;4.93;;;22.40;99.90;;;-143.32;63.65;55008.47;6126524;23;20432;-88
2021/06/16 06:19:24;;;;;;;7.50;4.70;;;22.70;99.90;;;-143.32;62.68;55010.50;6126972;23;20408;-91
2021/06/16 06:21:51;;;;;;;8.43;4.50;;;22.70;99.90;;;-143.32;61.59;54990.28;6127288;23;20470;-89
2021/06/16 06:24:18;;;;;;;9.33;4.27;;;22.80;99.90;;;-143.32;63.36;55004.44;6127319;23;20482;-88
2021/06/16 06:27:09;;;;;;;10.20;5.27;;;22.80;99.90;;;-143.32;61.80;55030.72;6128077;23;20922;-88
2021/06/16 06:29:39;;;;;;;16.10;5.03;;;22.80;99.90;;;-143.32;61.31;55083.25;6126922;23;20392;-89
2021/06/16 06:32:07;;;;;;;12.37;4.97;;;22.70;99.90;;;-143.32;60.05;55065.06;6127175;23;20411;-90
2021/06/16 06:34:34;;;;;;;8.67;4.70;;;22.80;99.90;;;-143.32;61.32;55026.66;6126921;23;20447;-89
2021/06/16 06:37:03;;;;;;;10.57;5.63;;;22.70;99.90;;;-143.32;61.80;55056.97;6126757;23;20949;-89
2021/06/16 06:43:11;;;;;;;13.53;5.87;;;22.80;99.90;;;-143.32;60.26;55026.66;6126890;23;20391;-88
2021/06/16 06:49:24;;;;;;;13.27;5.30;;;23.50;99.90;;;-143.32;57.72;54970.09;6126934;23;20782;-89
2021/06/16 06:51:54;;;;;;;10.37;4.77;;;23.50;99.90;;;-143.32;58.42;55002.41;6127391;23;20553;-89
2021/06/16 06:54:21;;;;;;;10.70;5.00;;;23.40;99.90;;;-143.32;59.36;55022.63;6127595;23;20447;-89
2021/06/16 06:56:48;;;;;;;6.63;4.77;;;23.20;99.90;;;-143.32;59.33;55008.47;6126608;23;20411;-89
2021/06/16 06:59:15;;;;;;;9.93;5.60;;;23.20;99.90;;;-143.32;59.41;55050.91;6126514;23;20431;-90
2021/06/16 07:02:02;;;;;;;12.80;5.23;;;23.30;99.90;;;-143.32;59.99;54996.34;6126733;23;20463;-88
2021/06/16 07:11:53;;;;;;;20.23;4.27;;;23.30;99.90;;;-143.32;58.27;55010.50;6126543;23;20426;-89
2021/06/16 07:14:21;;;;;;;10.37;4.80;;;23.60;99.90;;;-143.32;58.24;54976.16;6126992;23;20432;-90
2021/06/16 07:16:48;;;;;;;13.37;5.57;;;23.80;99.90;;;-143.32;55.52;54994.34;6126815;23;20414;-90
2021/06/16 07:19:16;;;;;;;9.23;4.83;;;24.00;99.90;;;-143.32;56.75;54970.09;6127227;23;20496;-90
2021/06/16 07:21:45;;;;;;;9.07;4.90;;;24.20;99.90;;;-143.32;54.59;54976.16;6126911;23;20781;-90
2021/06/16 07:24:15;;;;;;;6.60;4.10;;;24.40;99.90;;;-143.32;52.18;54970.09;6126855;23;20408;-92
2021/06/16 07:26:45;;;;;;;13.07;4.37;;;24.60;99.90;;;-143.32;52.56;54986.25;6126439;23;20407;-93
2021/06/16 07:29:13;;;;;;;12.60;3.80;;;24.50;99.90;;;-143.32;51.63;54959.97;6127194;23;20442;-92
2021/06/16 07:31:42;;;;;;;5.70;3.50;;;24.70;99.90;;;-143.32;51.21;54974.13;6127651;23;20410;-93
2021/06/16 07:34:09;;;;;;;10.87;3.70;;;24.80;98.90;;;-143.32;49.32;55038.78;6127094;23;20474;-91
2021/06/16 07:36:39;;;;;;;10.43;4.00;;;24.80;93.00;;;-143.32;48.55;55014.53;6127593;23;20470;-92
2021/06/16 07:39:10;;;;;;;6.63;3.73;;;24.90;82.90;;;-143.32;49.23;54957.97;6128763;23;20474;-91
2021/06/16 07:45:58;;;;;;;13.70;4.20;;;25.30;94.30;;;-143.32;47.30;55000.41;6132096;23;20400;-92
2021/06/16 07:48:35;;;;;;;17.50;11.93;;;25.60;73.70;;;-143.32;48.96;54929.66;6127047;23;20402;-92
2021/06/16 07:51:02;;;;;;;8.30;4.27;;;25.40;32.60;;;-143.32;48.13;54966.03;6134447;23;20450;-90
2021/06/16 07:53:40;;;;;;;10.90;4.47;;;25.30;12.10;;;-143.32;48.38;54945.84;6128518;23;20435;-92
2021/06/16 07:56:08;;;;;;;13.27;4.27;;;25.50;28.60;;;-143.32;48.53;54911.50;6129045;23;20402;-92
2021/06/16 07:58:39;;;;;;;14.47;4.30;;;25.80;39.00;;;-143.32;47.55;54968.06;6129639;23;20419;-93
2021/06/16 08:01:48;;;;;;;;;;;;;;;;;;;;;
2021/06/16 08:07:40;;;;;;;9.03;3.80;;;26.00;37.80;;;-143.32;46.78;54945.84;6129987;23;20455;-93
2021/06/16 08:10:09;;;;;;;9.60;4.20;;;26.00;5.50;;;-143.32;47.16;54933.72;6129928;23;20402;-94
2021/06/16 08:12:41;;;;;;;11.47;4.13;;;26.00;5.40;;;-143.32;48.08;54915.53;6128561;23;20415;-92
2021/06/16 08:15:10;;;;;;;9.27;4.47;;;26.00;1.00;;;-143.32;47.40;54856.94;6128243;23;20533;-91
2021/06/16 08:17:40;;;;;;;9.50;3.90;;;26.30;6.50;;;-143.32;46.20;54863.00;6128863;23;20399;-93
2021/06/16 08:20:10;;;;;;;19.50;4.67;;;26.60;28.80;;;-143.32;47.80;54891.28;6127824;23;20481;-92
2021/06/16 08:22:37;;;;;;;12.60;4.07;;;26.40;1.00;;;-143.32;46.70;54895.31;6128608;23;20869;-91
2021/06/16 08:25:11;;;;;;;10.43;3.80;;;26.40;1.00;;;-143.32;46.84;54844.81;6128516;23;20467;-92
2021/06/16 08:27:43;;;;;;;9.63;3.70;;;26.70;1.00;;;-143.32;47.08;54846.81;6129148;23;20407;-92
2021/06/16 08:30:20;;;;;;;10.50;3.93;;;26.70;1.00;;;-143.32;45.66;54860.97;6129494;23;20494;-93
2021/06/16 08:32:47;;;;;;;9.20;3.63;;;26.90;1.00;;;-143.32;44.12;54844.81;6129790;23;20427;-89
2021/06/16 08:35:15;;;;;;;6.60;3.77;;;27.10;31.50;;;-143.32;44.42;54854.91;6127954;23;20457;-92
2021/06/16 08:37:43;;;;;;;7.07;2.97;;;27.20;6.60;;;-143.32;42.50;54834.72;6128307;23;20504;-91
2021/06/16 08:40:15;;;;;;;10.23;3.43;;;27.70;22.00;;;-143.32;40.54;54889.25;6142244;23;20463;-94
2021/06/16 09:07:23;;;;;;;7.87;3.40;;;27.80;99.90;;;-143.32;41.80;54848.84;6140471;23;20431;-91
2021/06/16 09:15:16;;;;;;;7.47;3.40;;;28.30;99.90;;;-143.32;40.82;54806.41;6107222;23;20446;-94
2021/06/16 10:25:09;;;;;;;12.23;3.97;;;27.90;99.90;;;-143.32;45.19;54753.88;6146521;23;20450;-91
2021/06/16 10:27:41;;;;;;;12.73;4.90;;;27.90;99.90;;;-143.32;44.41;54741.75;6156346;23;20402;-89
2021/06/16 10:30:12;;;;;;;10.17;4.30;;;28.10;99.90;;;-143.32;45.10;54727.63;6156893;23;20395;-90
2021/06/16 10:32:50;;;;;;;18.50;4.57;;;28.20;99.90;;;-143.32;44.36;54747.81;6156249;23;20397;-91
2021/06/16 10:35:39;;;;;;;7.10;4.50;;;28.30;99.90;;;-143.32;43.57;54778.13;6156482;23;20457;-92
2021/06/16 10:38:18;;;;;;;9.20;4.50;;;28.40;99.90;;;-143.32;43.11;54721.56;6156631;23;20429;-90
2021/06/16 10:40:54;;;;;;;9.13;4.23;;;28.60;99.90;;;-143.32;42.48;54729.63;6157635;23;20403;-89
2021/06/16 10:43:28;;;;;;;8.10;4.23;;;28.70;99.90;;;-143.32;44.13;54723.56;6156537;23;20486;-89
2021/06/16 10:46:00;;;;;;;14.30;4.90;;;28.60;99.90;;;-143.32;43.05;54713.47;6156202;23;20901;-89
2021/06/16 10:49:05;;;;;;;13.73;4.97;;;28.70;99.90;;;-143.32;42.79;54727.63;6157346;23;20403;-90
2021/06/16 10:51:36;;;;;;;11.57;4.50;;;28.70;99.90;;;-143.32;44.88;54727.63;6157518;23;20743;-90
2021/06/16 10:54:24;;;;;;;12.70;4.80;;;28.50;99.90;;;-143.32;45.93;54741.75;6156561;23;20438;-90
2021/06/16 10:56:58;;;;;;;21.63;5.03;;;28.20;99.90;;;-143.32;45.94;54697.31;6156597;23;20699;-87
2021/06/16 11:00:08;;;;;;;13.40;4.53;;;28.10;99.90;;;-143.32;45.24;54729.63;6156676;23;20410;-91
2021/06/16 11:03:05;;;;;;;5.63;4.20;;;28.20;99.90;;;-143.32;46.29;54701.34;6156335;23;20398;-88
2021/06/16 11:09:14;;;;;;;11.30;5.40;;;28.40;99.90;;;-143.32;45.67;54677.09;6156701;23;20406;-89
2021/06/16 11:12:15;;;;;;;7.33;4.93;;;28.30;99.90;;;-143.32;45.79;54709.44;6156757;23;20409;-91
2021/06/16 11:14:49;;;;;;;12.33;5.17;;;28.30;99.90;;;-143.32;46.27;54662.97;6092316;23;20478;-89
2021/06/16 11:17:42;;;;;;;8.27;5.47;;;28.40;99.90;;;-143.32;45.81;54681.16;6156487;23;20769;-89
2021/06/16 11:20:14;;;;;;;8.10;4.73;;;28.30;99.90;;;-143.32;45.59;54667.00;6156286;23;20470;-90
2021/06/16 11:22:59;;;;;;;8.83;4.37;;;28.60;99.90;;;-143.32;45.67;54677.09;6157601;23;20685;-91
2021/06/16 11:25:38;;;;;;;9.50;4.93;;;28.80;99.90;;;-143.32;44.36;54673.06;6154883;23;20823;-89
2021/06/16 11:28:19;;;;;;;7.30;4.50;;;29.00;99.90;;;-143.32;44.88;54612.44;6157158;23;20402;-92
2021/06/16 11:31:04;;;;;;;10.30;5.83;;;29.00;99.90;;;-143.32;44.76;54664.97;6157535;23;20382;-90
2021/06/16 11:33:47;;;;;;;15.10;5.47;;;29.10;99.90;;;-143.32;45.42;54662.97;6156485;23;20446;-93
2021/06/16 11:36:38;;;;;;;15.97;5.30;;;29.00;99.90;;;-143.32;45.75;54646.78;6156816;23;20454;-91
2021/06/16 11:39:14;;;;;;;17.23;5.70;;;28.90;99.90;;;-143.32;46.17;54691.25;6157446;23;20472;-88
2021/06/16 11:41:45;;;;;;;8.10;5.37;;;28.90;99.90;;;-143.32;46.07;54632.66;6156045;23;20517;-90
2021/06/16 11:44:15;;;;;;;19.97;5.80;;;28.90;99.90;;;-143.32;45.26;54626.59;6157940;23;20395;-89
2021/06/16 11:46:47;;;;;;;12.67;5.50;;;29.00;99.90;;;-143.32;45.61;54634.69;6156460;23;20468;-90
2021/06/16 11:49:18;;;;;;;12.37;5.27;;;29.10;99.90;;;-143.32;44.88;54628.63;6156364;23;20899;-89
2021/06/16 11:51:48;;;;;;;7.50;4.63;;;29.30;99.90;;;-143.32;44.26;54612.44;6155924;23;20847;-91
2021/06/16 11:54:21;;;;;;;10.90;5.10;;;29.50;99.90;;;-143.32;43.39;54590.22;6156222;23;20413;-90
2021/06/16 11:56:52;;;;;;;7.27;5.30;;;29.70;99.90;;;-143.32;44.43;54586.19;6156157;23;20441;-89
2021/06/16 11:59:36;;;;;;;11.07;5.67;;;29.70;99.90;;;-143.32;44.50;54624.56;6155931;23;20485;-89
2021/06/16 12:02:10;;;;;;;17.30;4.90;;;29.50;99.90;;;-143.32;43.69;54596.28;6156280;23;20393;-86
2021/06/16 12:04:49;;;;;;;10.10;5.10;;;29.50;99.90;;;-143.32;43.67;54578.09;6156100;23;20387;-88
2021/06/16 12:07:25;;;;;;;16.13;4.83;;;29.70;99.90;;;-143.32;43.94;54559.91;6156566;23;20844;-89
2021/06/16 12:09:56;;;;;;;9.93;4.80;;;29.90;99.90;;;-143.32;43.30;54570.03;6157132;23;20170;-89
2021/06/16 12:12:24;;;;;;;11.13;4.97;;;29.90;99.90;;;-143.32;43.75;54580.13;6156302;23;20445;-88
2021/06/16 12:15:10;;;;;;;9.60;5.03;;;29.90;99.90;;;-143.32;44.04;54574.06;6155626;23;21019;-89
2021/06/16 12:18:00;;;;;;;14.20;6.40;;;30.00;99.90;;;-143.32;42.88;54592.25;6155968;23;20689;-90
2021/06/16 12:20:30;;;;;;;13.00;5.20;;;30.00;99.90;;;-143.32;42.92;54574.06;6138970;23;20750;-90
2021/06/16 12:22:58;;;;;;;11.17;5.73;;;30.00;99.90;;;-143.32;43.37;54582.13;6156943;23;20179;-91
2021/06/16 12:25:28;;;;;;;9.07;5.67;;;30.00;99.90;;;-143.32;43.70;54610.44;6157283;23;20426;-88
2021/06/16 12:28:00;;;;;;;10.40;5.00;;;29.80;99.90;;;-143.32;43.93;54588.19;6156034;23;20457;-89
2021/06/16 12:30:32;;;;;;;10.97;5.50;;;29.70;99.90;;;-143.32;43.48;54592.25;6157308;23;20386;-88
2021/06/16 12:33:24;;;;;;;7.30;5.07;;;29.70;99.90;;;-143.32;43.57;54565.97;6155793;23;20480;-89